METAR Data
IDs: Format: Raw Decoded Include TAF

Data at: 2227 UTC 24 Mar 2019

KOCH 242156Z AUTO 17008KT 10SM BKN037 OVC060 24/18 A3003 RMK AO2 SLP172 T02440178
KOCH 242056Z AUTO 17008KT 10SM BKN033 BKN043 OVC055 24/18 A3005 RMK AO2 SLP177 T02440178 58023
KOCH 241956Z AUTO 20007KT 10SM FEW026 SCT032 OVC050 23/18 A3007 RMK AO2 SLP186 T02330178
KOCH 241914Z AUTO 20009KT 10SM SCT024 OVC044 23/18 A3009 RMK AO2
KOCH 241856Z AUTO 21008KT 10SM OVC024 22/17 A3010 RMK AO2 SLP193 T02170172
KOCH 241756Z AUTO 20006KT 10SM BKN016 OVC030 21/18 A3012 RMK AO2 SLP200 T02110178 10211 20139 58009
KOCH 241736Z AUTO 21007KT 10SM BKN016 OVC023 21/18 A3012 RMK AO2
KOCH 241656Z AUTO 20009KT 10SM OVC012 20/17 A3014 RMK AO2 SLP208 T02000172
KOCH 241556Z AUTO 21006KT 10SM OVC012 19/17 A3015 RMK AO2 SLP212 T01890167
KOCH 241519Z AUTO 15004KT 10SM OVC010 18/16 A3014 RMK AO2
KOCH 241456Z AUTO 16006KT 10SM OVC008 17/16 A3014 RMK AO2 SLP210 T01720156 53012
KOCH 241416Z AUTO 16005KT 10SM OVC006 16/15 A3014 RMK AO2 CIG 004V009
KOCH 241356Z AUTO 13003KT 9SM OVC004 16/15 A3013 RMK AO2 SLP206 T01560150
KOCH 241332Z AUTO 16003KT 9SM OVC004 14/14 A3012 RMK AO2
KOCH 241321Z AUTO 14003KT 7SM BKN006 OVC015 14/14 A3012 RMK AO2
KOCH 241306Z AUTO 12003KT 7SM FEW006 SCT010 OVC017 14/14 A3011 RMK AO2
KOCH 241256Z AUTO 12003KT 6SM BR OVC015 14/14 A3011 RMK AO2 SLP197 T01390139
KOCH 241220Z AUTO 14004KT 8SM FEW007 BKN013 14/13 A3010 RMK AO2
KOCH 241156Z AUTO 14004KT 10SM CLR 14/13 A3011 RMK AO2 SLP198 T01390133 10172 20139 52003
KOCH 241056Z AUTO 14005KT 10SM CLR 14/13 A3010 RMK AO2 SLP196 T01440133
KOCH 240956Z AUTO 15004KT 10SM CLR 14/13 A3010 RMK AO2 SLP196 T01440133
KOCH 240856Z AUTO 14006KT 10SM CLR 15/13 A3010 RMK AO2 SLP193 T01500128 58003
KOCH 240756Z AUTO 16005KT 10SM BKN095 16/12 A3012 RMK AO2 SLP200 T01610122
KOCH 240656Z AUTO 17009KT 10SM SCT026 OVC095 17/12 A3012 RMK AO2 SLP200 T01670122
KOCH 240636Z AUTO 17006KT 10SM BKN026 OVC070 17/13 A3013 RMK AO2
KOCH 240556Z AUTO 17009G17KT 10SM OVC095 17/12 A3011 RMK AO2 SLP197 T01720122 10217 20172 402390078 58007
KOCH 240456Z AUTO 16011KT 10SM OVC090 18/13 A3012 RMK AO2 SLP201 T01780128
KOCH 240356Z AUTO 17011KT 10SM BKN080 OVC090 18/13 A3013 RMK AO2 SLP206 T01780128
KOCH 240256Z AUTO 16007KT 10SM BKN080 18/11 A3013 RMK AO2 SLP205 T01830111 53016
KOCH 240156Z AUTO 17008G15KT 10SM OVC090 19/11 A3011 RMK AO2 SLP199 T01940111
KOCH 240056Z AUTO 17011KT 10SM BKN080 20/11 A3009 RMK AO2 SLP192 T02000111
KOCH 232356Z AUTO 18009KT 10SM OVC070 22/12 A3008 RMK AO2 SLP191 T02170117 10239 20217 55002
KOCH 232256Z AUTO 18007KT 10SM OVC070 22/12 A3008 RMK AO2 SLP187 T02170122
KOCH 232156Z AUTO 19008G17KT 10SM FEW055 OVC080 23/11 A3007 RMK AO2 SLP188 T02330111
KOCH 232056Z AUTO 20010KT 10SM OVC085 23/11 A3009 RMK AO2 SLP193 T02330106 58016
KOCH 231956Z AUTO 18012G19KT 10SM BKN080 OVC095 23/10 A3011 RMK AO2 SLP199 T02330100
KOCH 231856Z AUTO 19011G20KT 10SM SCT080 23/10 A3013 RMK AO2 SLP206 T02280100
KOCH 231756Z AUTO 17011G20KT 10SM CLR 22/11 A3014 RMK AO2 SLP209 T02220106 10222 20083 57018
KOCH 231656Z AUTO 18013KT 10SM CLR 21/12 A3017 RMK AO2 SLP218 T02110117
KOCH 231556Z AUTO 15012KT 10SM CLR 19/13 A3016 RMK AO2 PRESFR SLP217 T01890133
KOCH 231456Z AUTO 16007KT 10SM BKN090 16/13 A3019 RMK AO2 SLP226 T01610133 53016
KOCH 231356Z AUTO 13005KT 10SM BKN080 13/11 A3018 RMK AO2 SLP223 T01330106
KOCH 231256Z AUTO 12006KT 10SM CLR 11/09 A3015 RMK AO2 SLP212 T01060089
KOCH 231156Z AUTO 00000KT 10SM BKN080 09/08 A3014 RMK AO2 SLP209 T00890078 10100 20078 51014
KOCH 231056Z AUTO 00000KT 10SM CLR 08/07 A3013 RMK AO2 SLP207 T00780072